WetterOnline ( http://www.wetteronline.at )

Wetter aktuell Marienberg

Aktuelles Wetter: Marienberg (640m)

6-stündlich | Neueste Meldungen
Ortszeit Temperatur Wetter
Mi, 20.02. 7:00 1.4° C bedeckt
Mi, 20.02. 1:00 2.1° C leicht bewölkt
Di, 19.02. 19:00 2.2° C leicht bewölkt
Di, 19.02. 13:00 6.8° C bedeckt
Di, 19.02. 7:00 3.6° C wolkig
Di, 19.02. 1:00 6.8° C wolkenlos
Mo, 18.02. 19:00 8.3° C wolkenlos
Mo, 18.02. 13:00 14.1° C leicht bewölkt
Ortszeit Temperatur Wetter
Mi, 20.02. 11:30 4.1° C bewölkt
Mi, 20.02. 11:20 4.1° C bewölkt
Mi, 20.02. 11:10 3.9° C bewölkt
Mi, 20.02. 11:00 3.6° C bewölkt
Mi, 20.02. 10:50 3.6° C bewölkt
Mi, 20.02. 10:40 3.7° C wolkig
Mi, 20.02. 10:30 3.5° C bewölkt
Mi, 20.02. 10:00 3.2° C -
Mi, 20.02. 9:30 2.5° C bedeckt
Mi, 20.02. 9:00 2.1° C bewölkt
Mi, 20.02. 8:30 1.9° C bewölkt
Ortszeit Relative Feuchte Sichtweite
Mi, 20.02. 7:00 83% 17 km
Mi, 20.02. 1:00 81% 27 km
Di, 19.02. 19:00 86% 30 km
Di, 19.02. 13:00 60% 45 km
Di, 19.02. 7:00 58% 55 km
Di, 19.02. 1:00 35% 65 km
Mo, 18.02. 19:00 44% 35 km
Mo, 18.02. 13:00 20% >70 km
Ortszeit Relative Feuchte Sichtweite
Mi, 20.02. 11:30 69% 35 km
Mi, 20.02. 11:20 69% -
Mi, 20.02. 11:10 70% -
Mi, 20.02. 11:00 71% 35 km
Mi, 20.02. 10:50 71% -
Mi, 20.02. 10:40 72% -
Mi, 20.02. 10:30 73% 24 km
Mi, 20.02. 10:00 75% 21 km
Mi, 20.02. 9:30 78% 21 km
Mi, 20.02. 9:00 80% 19 km
Mi, 20.02. 8:30 81% 20 km
Ortszeit Niederschlagsmenge Niederschlagsart
Mi, 20.02. 7:00 0.0 l/m2 in 12 Std. -
Mi, 20.02. 1:00 0.0 l/m2 in 6 Std. -
Di, 19.02. 19:00 0.1 l/m2 in 12 Std. Regen
Di, 19.02. 13:00 0.0 l/m2 in 6 Std. -
Di, 19.02. 7:00 0.0 l/m2 in 12 Std. -
Di, 19.02. 1:00 0.0 l/m2 in 6 Std. -
Mo, 18.02. 19:00 0.0 l/m2 in 12 Std. -
Mo, 18.02. 13:00 0.0 l/m2 in 6 Std. -
Ortszeit Niederschlagsmenge Niederschlagsart
Mi, 20.02. 11:30 0.0 l/m2 in 1 Std. -
Mi, 20.02. 11:20 keine Meldung -
Mi, 20.02. 11:10 keine Meldung -
Mi, 20.02. 11:00 0.0 l/m2 in 1 Std. -
Mi, 20.02. 10:50 keine Meldung -
Mi, 20.02. 10:40 keine Meldung -
Mi, 20.02. 10:30 0.0 l/m2 in 1 Std. -
Mi, 20.02. 10:00 0.0 l/m2 in 1 Std. -
Mi, 20.02. 9:30 0.0 l/m2 in 1 Std. -
Mi, 20.02. 9:00 0.0 l/m2 in 1 Std. -
Mi, 20.02. 8:30 0.0 l/m2 in 1 Std. -
Ortszeit Stärke Spitze Richtung
km/h Bft. km/h Grad Sektor
Mi, 20.02. 7:00 11 2 25 250° W
Mi, 20.02. 1:00 11 2 29 250° W
Di, 19.02. 19:00 13 3 33 240° SW
Di, 19.02. 13:00 19 3 35 280° W
Di, 19.02. 7:00 15 3 22 240° SW
Di, 19.02. 1:00 13 3 22 220° SW
Mo, 18.02. 19:00 11 2 22 190° S
Mo, 18.02. 13:00 7 2 18 230° SW
Ortszeit Stärke Spitze Richtung
km/h Bft. km/h Grad Sektor
Mi, 20.02. 11:30 15 3 28 270° W
Mi, 20.02. 11:20 15 3 - 270° W
Mi, 20.02. 11:10 13 3 - 270° W
Mi, 20.02. 11:00 14 3 29 260° W
Mi, 20.02. 10:50 14 3 - 260° W
Mi, 20.02. 10:40 13 3 - 260° W
Mi, 20.02. 10:30 11 2 25 270° W
Mi, 20.02. 10:00 11 2 18 240° SW
Mi, 20.02. 9:30 11 2 18 240° SW
Mi, 20.02. 9:00 7 2 24 240° SW
Mi, 20.02. 8:30 9 2 17 250° W
Ortszeit Untergrenze Bedeckung Gattung
total tief tief mittel hoch
Mi, 20.02. 7:00 1200 m 8/8 8/8 - - -
Mi, 20.02. 1:00 1500 m 1/8 4/8 - - -
Di, 19.02. 19:00 390 m 2/8 2/8 - - -
Di, 19.02. 13:00 840 m 8/8 8/8 - - -
Di, 19.02. 7:00 8100 m 7/8 0/8 - - -
Di, 19.02. 1:00 - 0/8 0/8 - - -
Mo, 18.02. 19:00 - 0/8 0/8 - - -
Mo, 18.02. 13:00 9000 m 6/8 0/8 - - -
Ortszeit Bedeckungsgrad in Achtel und Wolkenuntergrenze
Mi, 20.02. 11:30 6(1110m) 7(4800m) 7(6600m)
Mi, 20.02. 11:20 6(1110m) 7(4800m) 7(6600m)
Mi, 20.02. 11:10 7(1140m) 7(4500m) 7(5400m)
Mi, 20.02. 11:00 6(1110m) 8(4200m) 8(5100m)
Mi, 20.02. 10:50 6(1110m) 8(4200m) 8(5100m)
Mi, 20.02. 10:40 2(900m) 8(4200m) 8(5700m)
Mi, 20.02. 10:30 7(1170m) 8(4500m) 8(4200m)
Mi, 20.02. 10:00 -
Mi, 20.02. 9:30 8(1260m) 8(2700m)
Mi, 20.02. 9:00 1(690m) 7(1230m)
Mi, 20.02. 8:30 8(1230m) 7(1230m)
Ortszeit Luftdruck NN (hPa) Tendenz (hPa in 3 Std.)
Mi, 20.02. 7:00 1023 + 0,6
Mi, 20.02. 1:00 1022 + 0,2
Di, 19.02. 19:00 1020 + 0,7
Di, 19.02. 13:00 1018 + 0,1
Di, 19.02. 7:00 1018 0,0
Di, 19.02. 1:00 1018 - 0,8
Mo, 18.02. 19:00 1019 - 0,3
Mo, 18.02. 13:00 1020 - 1,1
Ortszeit Luftdruck NN (hPa) Tendenz (hPa in 3 Std.)
Mi, 20.02. 11:30 1024 + 1,3
Mi, 20.02. 11:20 1024 keine Meldung
Mi, 20.02. 11:10 1024 keine Meldung
Mi, 20.02. 11:00 1024 + 1,5
Mi, 20.02. 10:50 1024 keine Meldung
Mi, 20.02. 10:40 1024 keine Meldung
Mi, 20.02. 10:30 1024 + 1,7
Mi, 20.02. 10:00 1024 + 1,9
Mi, 20.02. 9:30 1024 + 1,6
Mi, 20.02. 9:00 1024 + 1,6
Mi, 20.02. 8:30 1024 + 1,1
Ortszeit Schneehöhe (cm)
Mi, 20.02. 7:00 18
Mi, 20.02. 1:00 18
Di, 19.02. 19:00 18
Di, 19.02. 13:00 19
Di, 19.02. 7:00 19
Di, 19.02. 1:00 19
Mo, 18.02. 19:00 19
Mo, 18.02. 13:00 21
Ortszeit Schneehöhe (cm)
Mi, 20.02. 11:30 -
Mi, 20.02. 11:20 -
Mi, 20.02. 11:10 -
Mi, 20.02. 11:00 -
Mi, 20.02. 10:50 -
Mi, 20.02. 10:40 -
Mi, 20.02. 10:30 -
Mi, 20.02. 10:00 -
Mi, 20.02. 9:30 18
Mi, 20.02. 9:00 18
Mi, 20.02. 8:30 18
Link zu dieser Seite / Seite empfehlen

Das Wetter in ...